createdAt,value
2024-01-24T00:00:10.323Z,100247.53
2024-01-24T00:00:22.498Z,100245.84
2024-01-24T00:00:34.656Z,100243.22
2024-01-24T00:00:46.761Z,100257.97
2024-01-24T00:00:58.895Z,100256.19
2024-01-24T00:01:11.048Z,100257.88
2024-01-24T00:01:23.089Z,100257.97
2024-01-24T00:01:35.329Z,100252.00
2024-01-24T00:01:47.346Z,100250.22
2024-01-24T00:01:59.384Z,100253.09
2024-01-24T00:02:11.384Z,100242.34
2024-01-24T00:02:23.385Z,100246.56
2024-01-24T00:02:35.345Z,100248.09
2024-01-24T00:02:50.423Z,100254.31
2024-01-24T00:03:02.846Z,100249.81
2024-01-24T00:03:15.033Z,100242.88
2024-01-24T00:03:27.249Z,100241.88
2024-01-24T00:03:39.306Z,100250.00
2024-01-24T00:03:51.362Z,100246.56
2024-01-24T00:04:03.602Z,100248.25
2024-01-24T00:04:15.768Z,100229.91
2024-01-24T00:04:27.954Z,100249.72
2024-01-24T00:04:40.094Z,100256.66
2024-01-24T00:04:52.135Z,100250.53
2024-01-24T00:05:04.287Z,100243.63
2024-01-24T00:05:17.222Z,100260.28
2024-01-24T00:05:29.505Z,100234.94
2024-01-24T00:05:41.559Z,100239.91
2024-01-24T00:05:53.556Z,100237.16
2024-01-24T00:06:05.814Z,100237.00
2024-01-24T00:06:17.813Z,100233.50
2024-01-24T00:06:29.874Z,100238.03
2024-01-24T00:06:41.916Z,100221.66
2024-01-24T00:06:53.943Z,100240.75
2024-01-24T00:07:06.116Z,100233.06
2024-01-24T00:07:18.103Z,100237.44
2024-01-24T00:07:30.251Z,100239.91
2024-01-24T00:07:42.271Z,100226.00
2024-01-24T00:07:54.408Z,100244.34
2024-01-24T00:08:06.550Z,100219.84
2024-01-24T00:08:18.514Z,100233.53
2024-01-24T00:08:30.479Z,100226.56
2024-01-24T00:08:42.484Z,100235.38
2024-01-24T00:08:54.448Z,100234.66
2024-01-24T00:09:06.441Z,100226.09
2024-01-24T00:09:18.439Z,100236.31
2024-01-24T00:09:32.435Z,100238.88
2024-01-24T00:09:44.437Z,100237.97
2024-01-24T00:09:56.407Z,100229.47
2024-01-24T00:10:09.091Z,100225.13
2024-01-24T00:10:21.222Z,100227.72
2024-01-24T00:10:33.161Z,100209.59
2024-01-24T00:10:45.338Z,100219.06
2024-01-24T00:10:57.434Z,100217.03
2024-01-24T00:11:09.412Z,100219.53
2024-01-24T00:11:21.901Z,100245.72
2024-01-24T00:11:33.896Z,100227.66
2024-01-24T00:11:45.948Z,100222.34
2024-01-24T00:11:59.029Z,100209.28
2024-01-24T00:12:11.096Z,100211.06
2024-01-24T00:12:23.289Z,100216.41
2024-01-24T00:12:35.530Z,100223.34
2024-01-24T00:12:47.566Z,100220.69
2024-01-24T00:13:00.274Z,100225.75
2024-01-24T00:13:12.341Z,100233.69
2024-01-24T00:13:24.347Z,100202.50
2024-01-24T00:13:36.318Z,100210.09
2024-01-24T00:13:48.340Z,100203.13
2024-01-24T00:14:00.273Z,100220.63
2024-01-24T00:14:12.423Z,100204.91
2024-01-24T00:14:24.438Z,100199.72
2024-01-24T00:14:36.394Z,100191.91
2024-01-24T00:14:48.634Z,100181.66
2024-01-24T00:15:00.799Z,100207.53
2024-01-24T00:15:12.820Z,100194.34
2024-01-24T00:15:24.848Z,100210.84
2024-01-24T00:15:37.041Z,100199.69
2024-01-24T00:15:49.206Z,100211.06
2024-01-24T00:16:01.383Z,100202.31
2024-01-24T00:16:13.444Z,100211.88
2024-01-24T00:16:37.381Z,100202.44
2024-01-24T00:16:49.345Z,100213.91
2024-01-24T00:17:02.585Z,100209.59
2024-01-24T00:17:14.537Z,100205.34
2024-01-24T00:17:26.604Z,100205.38
2024-01-24T00:17:38.662Z,100204.47
2024-01-24T00:17:50.741Z,100206.19
2024-01-24T00:18:02.942Z,100202.59
2024-01-24T00:18:15.171Z,100205.25
2024-01-24T00:18:27.460Z,100195.59
2024-01-24T00:18:39.752Z,100200.81
2024-01-24T00:18:51.979Z,100192.06
2024-01-24T00:19:04.174Z,100200.53
2024-01-24T00:19:16.272Z,100197.81
2024-01-24T00:19:28.342Z,100203.13
2024-01-24T00:19:40.352Z,100188.44
2024-01-24T00:19:52.382Z,100192.00
2024-01-24T00:20:04.665Z,100181.59
2024-01-24T00:20:16.687Z,100194.47
2024-01-24T00:20:28.699Z,100198.84
2024-01-24T00:20:40.677Z,100200.63
2024-01-24T00:20:54.227Z,100196.31
2024-01-24T00:21:06.393Z,100188.59
2024-01-24T00:21:18.481Z,100194.47
2024-01-24T00:21:30.796Z,100203.03
2024-01-24T00:21:42.960Z,100187.41
2024-01-24T00:21:55.063Z,100188.25
2024-01-24T00:22:07.021Z,100199.44
2024-01-24T00:22:18.994Z,100198.56
2024-01-24T00:22:30.965Z,100195.16
2024-01-24T00:22:42.937Z,100217.72
2024-01-24T00:22:54.903Z,100185.59
2024-01-24T00:23:06.872Z,100209.03
2024-01-24T00:23:19.061Z,100184.78
2024-01-24T00:23:31.071Z,100190.03
2024-01-24T00:23:43.127Z,100185.69
2024-01-24T00:23:55.116Z,100179.69
2024-01-24T00:24:07.251Z,100186.38
2024-01-24T00:24:19.336Z,100189.72
2024-01-24T00:24:31.369Z,100183.66
2024-01-24T00:24:43.399Z,100175.00
2024-01-24T00:24:55.389Z,100182.94
2024-01-24T00:25:07.746Z,100189.94
2024-01-24T00:25:19.747Z,100184.84
2024-01-24T00:25:31.692Z,100191.84
2024-01-24T00:25:43.686Z,100187.50
2024-01-24T00:25:55.724Z,100179.59
2024-01-24T00:26:07.985Z,100176.88
2024-01-24T00:26:20.027Z,100159.31
2024-01-24T00:26:31.985Z,100185.31
2024-01-24T00:26:43.991Z,100180.31
2024-01-24T00:26:56.140Z,100179.47
2024-01-24T00:27:08.190Z,100180.28
2024-01-24T00:27:20.531Z,100196.78
2024-01-24T00:27:32.996Z,100161.03
2024-01-24T00:27:45.795Z,100183.50
2024-01-24T00:27:58.055Z,100183.63
2024-01-24T00:28:10.093Z,100182.72
2024-01-24T00:28:23.203Z,100193.06
2024-01-24T00:28:35.180Z,100186.03
2024-01-24T00:28:47.167Z,100194.03
2024-01-24T00:28:59.123Z,100178.22
2024-01-24T00:29:11.615Z,100181.00
2024-01-24T00:29:23.555Z,100174.22
2024-01-24T00:29:35.519Z,100175.97
2024-01-24T00:29:47.486Z,100174.16
2024-01-24T00:29:59.498Z,100189.78
2024-01-24T00:30:11.841Z,100181.06
2024-01-24T00:30:24.070Z,100187.22
2024-01-24T00:30:36.065Z,100188.06
2024-01-24T00:30:48.191Z,100189.78
2024-01-24T00:31:00.689Z,100192.41
2024-01-24T00:31:12.694Z,100189.09
2024-01-24T00:31:24.626Z,100184.66
2024-01-24T00:31:36.557Z,100192.50
2024-01-24T00:31:51.595Z,100193.34
2024-01-24T00:32:04.684Z,100189.94
2024-01-24T00:32:16.739Z,100193.53
2024-01-24T00:32:28.692Z,100186.53
2024-01-24T00:32:40.740Z,100185.09
2024-01-24T00:32:52.948Z,100192.69
2024-01-24T00:33:05.746Z,100198.84
2024-01-24T00:33:18.114Z,100190.03
2024-01-24T00:33:32.793Z,100197.72
2024-01-24T00:33:44.911Z,100184.72
2024-01-24T00:33:57.023Z,100187.28
2024-01-24T00:34:09.327Z,100201.91
2024-01-24T00:34:21.369Z,100188.31
2024-01-24T00:34:33.410Z,100192.69
2024-01-24T00:34:45.405Z,100200.47
2024-01-24T00:34:57.456Z,100197.94
2024-01-24T00:35:09.610Z,100193.53
2024-01-24T00:35:21.591Z,100190.94
2024-01-24T00:35:33.624Z,100190.13
2024-01-24T00:35:45.621Z,100201.34
2024-01-24T00:35:57.849Z,100190.13
2024-01-24T00:36:09.884Z,100238.88
2024-01-24T00:36:23.015Z,100193.34
2024-01-24T00:36:35.122Z,100183.81
2024-01-24T00:36:47.279Z,100198.56
2024-01-24T00:36:59.353Z,100193.28
2024-01-24T00:37:11.308Z,100200.09
2024-01-24T00:37:24.279Z,100198.41
2024-01-24T00:37:36.312Z,100198.38
2024-01-24T00:37:48.281Z,100197.59
2024-01-24T00:38:00.241Z,100205.41
2024-01-24T00:38:12.241Z,100171.47
2024-01-24T00:38:24.200Z,100200.97
2024-01-24T00:38:36.644Z,100197.53
2024-01-24T00:38:48.777Z,100194.13
2024-01-24T00:39:00.718Z,100203.63
2024-01-24T00:39:14.416Z,100196.53
2024-01-24T00:39:26.573Z,100194.69
2024-01-24T00:39:38.780Z,100195.78
2024-01-24T00:39:50.809Z,100195.66
2024-01-24T00:40:04.232Z,100191.44
2024-01-24T00:40:16.304Z,100196.69
2024-01-24T00:40:28.290Z,100180.91
2024-01-24T00:40:40.221Z,100203.47
2024-01-24T00:40:52.309Z,100197.16
2024-01-24T00:41:04.399Z,100197.38
2024-01-24T00:41:16.364Z,100197.50
2024-01-24T00:41:28.393Z,100184.44
2024-01-24T00:41:42.908Z,100189.72
2024-01-24T00:41:57.280Z,100188.91
2024-01-24T00:42:09.359Z,100195.56
2024-01-24T00:42:21.407Z,100187.84
2024-01-24T00:42:33.551Z,100186.84
2024-01-24T00:42:45.636Z,100193.13
2024-01-24T00:42:57.631Z,100182.53
2024-01-24T00:43:09.606Z,100183.50
2024-01-24T00:43:22.410Z,100186.88
2024-01-24T00:43:34.350Z,100181.56
2024-01-24T00:43:46.332Z,100180.06
2024-01-24T00:43:58.691Z,100187.06
2024-01-24T00:44:10.665Z,100187.03
2024-01-24T00:44:22.797Z,100181.72
2024-01-24T00:44:34.840Z,100185.94
2024-01-24T00:44:48.965Z,100189.53
2024-01-24T00:45:00.972Z,100191.16
2024-01-24T00:45:13.489Z,100187.56
2024-01-24T00:45:25.651Z,100170.31
2024-01-24T00:45:37.690Z,100179.69
2024-01-24T00:45:49.730Z,100188.34
2024-01-24T00:46:01.849Z,100184.06
2024-01-24T00:46:13.917Z,100203.09
2024-01-24T00:46:25.998Z,100196.19
2024-01-24T00:46:37.921Z,100183.09
2024-01-24T00:46:49.897Z,100189.16
2024-01-24T00:47:01.986Z,100183.19
2024-01-24T00:47:13.970Z,100189.16
2024-01-24T00:47:26.098Z,100183.94
2024-01-24T00:47:38.381Z,100188.31
2024-01-24T00:47:50.407Z,100171.84
2024-01-24T00:48:02.565Z,100181.47
2024-01-24T00:48:14.697Z,100190.97
2024-01-24T00:48:26.789Z,100177.28
2024-01-24T00:48:38.880Z,100174.53
2024-01-24T00:48:51.005Z,100172.72
2024-01-24T00:49:11.119Z,100191.88
2024-01-24T00:49:23.713Z,100188.56
2024-01-24T00:49:35.922Z,100169.47
2024-01-24T00:49:47.929Z,100188.50
2024-01-24T00:49:59.912Z,100200.56
2024-01-24T00:50:11.880Z,100166.69
2024-01-24T00:50:23.884Z,100173.81
2024-01-24T00:50:36.044Z,100186.75
2024-01-24T00:50:47.999Z,100180.66
2024-01-24T00:51:00.045Z,100184.09
2024-01-24T00:51:12.046Z,100180.53
2024-01-24T00:51:24.055Z,100166.69
2024-01-24T00:51:36.120Z,100193.69
2024-01-24T00:51:49.069Z,100168.44
2024-01-24T00:52:01.332Z,100165.09
2024-01-24T00:52:14.036Z,100189.53
2024-01-24T00:52:26.628Z,100180.84
2024-01-24T00:52:38.599Z,100159.06
2024-01-24T00:52:53.272Z,100175.44
2024-01-24T00:53:05.886Z,100179.91
2024-01-24T00:53:21.109Z,100181.72
2024-01-24T00:53:35.973Z,100179.13
2024-01-24T00:53:53.905Z,100184.25
2024-01-24T00:54:06.134Z,100173.63
2024-01-24T00:54:18.177Z,100170.13
2024-01-24T00:54:30.236Z,100187.38
2024-01-24T00:54:42.338Z,100177.13
2024-01-24T00:54:54.299Z,100175.50
2024-01-24T00:55:07.409Z,100189.47
2024-01-24T00:55:20.056Z,100172.09
2024-01-24T00:55:32.352Z,100188.47
2024-01-24T00:55:46.165Z,100189.28
2024-01-24T00:55:59.180Z,100186.84
2024-01-24T00:56:11.161Z,100166.81
2024-01-24T00:56:23.204Z,100167.50
2024-01-24T00:56:35.177Z,100177.16
2024-01-24T00:56:47.220Z,100163.41
2024-01-24T00:56:59.203Z,100175.75
2024-01-24T00:57:11.267Z,100189.69
2024-01-24T00:57:23.296Z,100179.03
2024-01-24T00:57:35.339Z,100172.25
2024-01-24T00:57:47.373Z,100179.97
2024-01-24T00:57:59.585Z,100173.13
2024-01-24T00:58:11.562Z,100177.50
2024-01-24T00:58:23.746Z,100163.63
2024-01-24T00:58:35.960Z,100157.31
2024-01-24T00:58:47.880Z,100169.31
2024-01-24T00:58:59.799Z,100182.28
2024-01-24T00:59:11.752Z,100188.41
2024-01-24T00:59:23.784Z,100177.41
2024-01-24T00:59:35.737Z,100196.50
2024-01-24T00:59:47.717Z,100188.00
2024-01-24T00:59:59.705Z,100179.16
2024-01-24T01:00:12.346Z,100195.66
2024-01-24T01:00:24.410Z,100186.13
2024-01-24T01:00:36.668Z,100174.63
2024-01-24T01:00:48.863Z,100167.50
2024-01-24T01:01:01.122Z,100185.84
2024-01-24T01:01:13.846Z,100179.03
2024-01-24T01:01:25.861Z,100177.34
2024-01-24T01:01:38.098Z,100176.53
2024-01-24T01:01:50.178Z,100178.31
2024-01-24T01:02:02.277Z,100171.34
2024-01-24T01:02:14.343Z,100171.28
2024-01-24T01:02:26.522Z,100166.84
2024-01-24T01:02:38.481Z,100174.56
2024-01-24T01:02:50.456Z,100173.81
2024-01-24T01:03:02.505Z,100177.22
2024-01-24T01:03:14.568Z,100173.94
2024-01-24T01:03:26.643Z,100173.72
2024-01-24T01:03:39.619Z,100183.44
2024-01-24T01:03:51.671Z,100177.22
2024-01-24T01:04:04.932Z,100185.09
2024-01-24T01:04:17.069Z,100180.03
2024-01-24T01:04:29.197Z,100180.06
2024-01-24T01:04:41.287Z,100174.00
2024-01-24T01:04:53.242Z,100187.72
2024-01-24T01:05:05.701Z,100184.78
2024-01-24T01:05:17.723Z,100177.31
2024-01-24T01:05:29.735Z,100173.00
2024-01-24T01:05:41.818Z,100183.25
2024-01-24T01:05:53.868Z,100169.34
2024-01-24T01:06:06.563Z,100179.03
2024-01-24T01:06:18.553Z,100172.94
2024-01-24T01:06:30.949Z,100179.88
2024-01-24T01:06:43.057Z,100178.03
2024-01-24T01:06:55.113Z,100173.72
2024-01-24T01:07:07.132Z,100171.06
2024-01-24T01:07:19.140Z,100178.09
2024-01-24T01:07:31.402Z,100179.25
2024-01-24T01:07:43.359Z,100164.50
2024-01-24T01:07:56.065Z,100178.41
2024-01-24T01:08:08.089Z,100168.06
2024-01-24T01:08:20.051Z,100172.38
2024-01-24T01:08:32.008Z,100167.31
2024-01-24T01:08:43.977Z,100165.53
2024-01-24T01:08:56.108Z,100168.81
2024-01-24T01:09:09.276Z,100169.84
2024-01-24T01:09:21.298Z,100174.88
2024-01-24T01:09:33.503Z,100181.81
2024-01-24T01:09:45.571Z,100166.09
2024-01-24T01:09:57.654Z,100184.09
2024-01-24T01:10:10.135Z,100176.50
2024-01-24T01:10:22.273Z,100170.41
2024-01-24T01:10:34.872Z,100162.53
2024-01-24T01:10:46.887Z,100177.13
2024-01-24T01:10:58.845Z,100169.50
2024-01-24T01:11:10.897Z,100180.88
2024-01-24T01:11:22.944Z,100173.81
2024-01-24T01:11:34.992Z,100162.44
2024-01-24T01:11:46.938Z,100165.81
2024-01-24T01:11:59.113Z,100172.72
2024-01-24T01:12:11.076Z,100168.13
2024-01-24T01:12:23.174Z,100164.72
2024-01-24T01:12:35.244Z,100174.25
2024-01-24T01:12:47.396Z,100181.31
2024-01-24T01:12:59.475Z,100168.44
2024-01-24T01:13:11.505Z,100162.34
2024-01-24T01:13:24.166Z,100178.84
2024-01-24T01:13:36.174Z,100166.81
2024-01-24T01:13:49.285Z,100164.28
2024-01-24T01:14:01.232Z,100168.84
2024-01-24T01:14:13.209Z,100178.34
2024-01-24T01:14:25.938Z,100165.88
2024-01-24T01:14:38.658Z,100189.16
2024-01-24T01:14:50.658Z,100169.84
2024-01-24T01:15:02.701Z,100182.25
2024-01-24T01:15:14.816Z,100179.78
2024-01-24T01:15:26.868Z,100161.41
2024-01-24T01:15:38.910Z,100160.38
2024-01-24T01:15:51.277Z,100172.66
2024-01-24T01:16:04.452Z,100165.66
2024-01-24T01:16:16.455Z,100154.59
2024-01-24T01:16:28.506Z,100163.41
2024-01-24T01:16:40.449Z,100176.16
2024-01-24T01:16:52.382Z,100171.84
2024-01-24T01:17:04.551Z,100163.44
2024-01-24T01:17:16.571Z,100156.66
2024-01-24T01:17:28.506Z,100139.34
2024-01-24T01:17:40.559Z,100169.59
2024-01-24T01:17:52.864Z,100164.31
2024-01-24T01:18:05.288Z,100163.47
2024-01-24T01:18:17.343Z,100157.19
2024-01-24T01:18:29.430Z,100165.00
2024-01-24T01:18:41.576Z,100175.31
2024-01-24T01:18:53.666Z,100170.50
2024-01-24T01:19:05.734Z,100177.41
2024-01-24T01:19:17.812Z,100172.94
2024-01-24T01:19:29.970Z,100179.22
2024-01-24T01:19:42.210Z,100179.25
2024-01-24T01:19:54.267Z,100172.28
2024-01-24T01:20:06.732Z,100185.28
2024-01-24T01:20:21.394Z,100181.88
2024-01-24T01:20:33.418Z,100169.47
2024-01-24T01:20:45.389Z,100177.31
2024-01-24T01:20:57.524Z,100173.81
2024-01-24T01:21:09.555Z,100168.53
2024-01-24T01:21:21.595Z,100164.25
2024-01-24T01:21:33.720Z,100159.84
2024-01-24T01:21:46.842Z,100149.19
2024-01-24T01:22:00.055Z,100169.03
2024-01-24T01:22:12.252Z,100171.84
2024-01-24T01:22:24.328Z,100155.44
2024-01-24T01:22:36.670Z,100167.56
2024-01-24T01:22:49.492Z,100166.81
2024-01-24T01:23:01.504Z,100178.94
2024-01-24T01:23:13.446Z,100165.88
2024-01-24T01:23:25.404Z,100170.41
2024-01-24T01:23:37.369Z,100163.59
2024-01-24T01:23:49.343Z,100160.88
2024-01-24T01:24:01.370Z,100170.50
2024-01-24T01:24:13.666Z,100163.44
2024-01-24T01:24:25.690Z,100172.84
2024-01-24T01:24:37.704Z,100182.44
2024-01-24T01:24:49.784Z,100170.97
2024-01-24T01:25:02.124Z,100156.22
2024-01-24T01:25:14.368Z,100160.59
2024-01-24T01:25:26.338Z,100158.00
2024-01-24T01:25:38.322Z,100151.19
2024-01-24T01:25:50.408Z,100157.03
2024-01-24T01:26:02.664Z,100165.00
2024-01-24T01:26:14.628Z,100166.63
2024-01-24T01:26:26.634Z,100164.88
2024-01-24T01:26:38.624Z,100156.00
2024-01-24T01:26:50.587Z,100175.75
2024-01-24T01:27:03.656Z,100164.34
2024-01-24T01:27:15.830Z,100169.53
2024-01-24T01:27:27.988Z,100173.16
2024-01-24T01:27:40.620Z,100168.09
2024-01-24T01:27:52.762Z,100163.09
2024-01-24T01:28:05.165Z,100147.41
2024-01-24T01:28:17.176Z,100152.50
2024-01-24T01:28:29.145Z,100188.91
2024-01-24T01:28:41.091Z,100160.00
2024-01-24T01:28:53.063Z,100169.66
2024-01-24T01:29:05.620Z,100164.81
2024-01-24T01:29:17.581Z,100163.28
2024-01-24T01:29:29.555Z,100163.22
2024-01-24T01:29:41.549Z,100163.88
2024-01-24T01:29:53.493Z,100169.13
2024-01-24T01:30:06.352Z,100175.31
2024-01-24T01:30:18.818Z,100175.13
2024-01-24T01:30:30.851Z,100158.75
2024-01-24T01:30:42.867Z,100168.13
2024-01-24T01:30:55.139Z,100164.72
2024-01-24T01:31:10.459Z,100166.63
2024-01-24T01:31:22.389Z,100153.69
2024-01-24T01:31:34.365Z,100163.28
2024-01-24T01:31:47.302Z,100160.66
2024-01-24T01:31:59.306Z,100159.63
2024-01-24T01:32:11.345Z,100158.84
2024-01-24T01:32:23.318Z,100154.41
2024-01-24T01:32:35.359Z,100158.66
2024-01-24T01:32:47.525Z,100152.63
2024-01-24T01:32:59.542Z,100166.44
2024-01-24T01:33:11.724Z,100164.53
2024-01-24T01:33:23.969Z,100161.91
2024-01-24T01:33:36.290Z,100159.31
2024-01-24T01:33:48.473Z,100159.22
2024-01-24T01:34:02.214Z,100161.03
2024-01-24T01:34:14.400Z,100166.25
2024-01-24T01:34:26.552Z,100166.25
2024-01-24T01:34:38.734Z,100163.94
2024-01-24T01:34:50.698Z,100163.09
2024-01-24T01:35:02.772Z,100165.81
2024-01-24T01:35:14.928Z,100159.88
2024-01-24T01:35:27.473Z,100160.00
2024-01-24T01:35:39.498Z,100161.69
2024-01-24T01:35:51.769Z,100158.09
2024-01-24T01:36:14.198Z,100161.50
2024-01-24T01:36:34.642Z,100167.69
2024-01-24T01:36:46.691Z,100176.31
2024-01-24T01:36:58.937Z,100156.47
2024-01-24T01:37:10.937Z,100165.09
2024-01-24T01:37:24.797Z,100164.31
2024-01-24T01:37:39.175Z,100154.00
2024-01-24T01:37:51.248Z,100175.81
2024-01-24T01:38:03.395Z,100172.28
2024-01-24T01:38:15.874Z,100154.00
2024-01-24T01:38:27.901Z,100154.66
2024-01-24T01:38:39.914Z,100159.81
2024-01-24T01:38:51.960Z,100170.16
2024-01-24T01:39:05.313Z,100171.03
2024-01-24T01:39:17.434Z,100173.69
2024-01-24T01:39:29.794Z,100167.72
2024-01-24T01:39:41.897Z,100168.31
2024-01-24T01:39:53.963Z,100163.78
2024-01-24T01:40:07.673Z,100168.03
2024-01-24T01:40:19.725Z,100190.69
2024-01-24T01:40:31.720Z,100159.50
2024-01-24T01:40:43.712Z,100162.28
2024-01-24T01:40:55.706Z,100176.09
2024-01-24T01:41:07.631Z,100166.50
2024-01-24T01:41:19.901Z,100170.97
2024-01-24T01:41:31.974Z,100169.47
2024-01-24T01:41:47.566Z,100169.16
2024-01-24T01:41:59.631Z,100171.53
2024-01-24T01:42:11.650Z,100169.00
2024-01-24T01:42:23.668Z,100168.13
2024-01-24T01:42:35.861Z,100169.16
2024-01-24T01:42:48.092Z,100178.75
2024-01-24T01:43:00.141Z,100190.88
2024-01-24T01:43:15.217Z,100178.56
2024-01-24T01:43:27.354Z,100175.13
2024-01-24T01:43:39.313Z,100178.66
2024-01-24T01:43:51.293Z,100172.72
2024-01-24T01:44:03.775Z,100186.84
2024-01-24T01:44:16.502Z,100194.56
2024-01-24T01:44:28.460Z,100188.53
2024-01-24T01:44:47.647Z,100183.09
2024-01-24T01:44:59.773Z,100173.53
2024-01-24T01:45:12.488Z,100196.09
2024-01-24T01:45:24.526Z,100180.53
2024-01-24T01:45:36.555Z,100180.47
2024-01-24T01:45:49.074Z,100191.00
2024-01-24T01:46:11.522Z,100185.84
2024-01-24T01:46:23.680Z,100173.63
2024-01-24T01:46:35.735Z,100177.84
2024-01-24T01:46:48.799Z,100183.19
2024-01-24T01:47:00.822Z,100182.44
2024-01-24T01:47:17.402Z,100179.22
2024-01-24T01:47:29.442Z,100181.88
2024-01-24T01:47:41.788Z,100188.00
2024-01-24T01:47:54.111Z,100183.50
2024-01-24T01:48:06.548Z,100182.44
2024-01-24T01:48:18.742Z,100182.25
2024-01-24T01:48:30.889Z,100176.94
2024-01-24T01:48:43.538Z,100179.44
2024-01-24T01:48:57.580Z,100175.91
2024-01-24T01:49:10.476Z,100183.56
2024-01-24T01:49:22.980Z,100190.00
2024-01-24T01:49:35.139Z,100175.38
2024-01-24T01:49:47.755Z,100167.66
2024-01-24T01:49:59.990Z,100186.13
2024-01-24T01:50:15.351Z,100167.00
2024-01-24T01:50:27.455Z,100168.50
2024-01-24T01:50:40.465Z,100173.69
2024-01-24T01:50:52.857Z,100171.91
2024-01-24T01:51:06.925Z,100177.13
2024-01-24T01:51:20.609Z,100165.09
2024-01-24T01:51:32.715Z,100165.09
2024-01-24T01:51:45.817Z,100167.00
2024-01-24T01:51:58.035Z,100165.13
2024-01-24T01:52:10.936Z,100156.38
2024-01-24T01:52:25.668Z,100166.63
2024-01-24T01:52:41.740Z,100152.88
2024-01-24T01:52:53.764Z,100188.97
2024-01-24T01:53:08.209Z,100169.81
2024-01-24T01:53:21.105Z,100150.59
2024-01-24T01:53:39.408Z,100169.84
2024-01-24T01:53:51.812Z,100164.72
2024-01-24T01:54:04.831Z,100181.22
2024-01-24T01:54:17.447Z,100196.94
2024-01-24T01:54:29.459Z,100178.66
2024-01-24T01:54:43.286Z,100165.94
2024-01-24T01:54:55.546Z,100158.09
2024-01-24T01:55:09.607Z,100158.00
2024-01-24T01:55:22.083Z,100159.81
2024-01-24T01:55:36.562Z,100169.28
2024-01-24T01:55:49.478Z,100159.72
2024-01-24T01:56:01.484Z,100166.81
2024-01-24T01:56:16.405Z,100161.50
2024-01-24T01:56:28.672Z,100178.16
2024-01-24T01:56:40.755Z,100168.63
2024-01-24T01:56:52.763Z,100173.91
2024-01-24T01:57:06.697Z,100152.88
2024-01-24T01:57:18.958Z,100163.25
2024-01-24T01:57:32.520Z,100141.75
2024-01-24T01:57:45.437Z,100144.16
2024-01-24T01:57:59.017Z,100150.25
2024-01-24T01:58:10.997Z,100161.69
2024-01-24T01:58:23.549Z,100169.50
2024-01-24T01:58:36.766Z,100164.50
2024-01-24T01:58:50.521Z,100156.63
2024-01-24T01:59:02.744Z,100153.16
2024-01-24T01:59:15.410Z,100145.16
2024-01-24T01:59:27.420Z,100146.66
2024-01-24T01:59:41.781Z,100141.66
2024-01-24T01:59:54.300Z,100151.06
2024-01-24T02:00:09.443Z,100137.25
2024-01-24T02:00:22.197Z,100145.78
2024-01-24T02:00:34.595Z,100135.59
2024-01-24T02:00:51.589Z,100140.84
2024-01-24T02:01:05.689Z,100137.25
2024-01-24T02:01:18.690Z,100134.41
2024-01-24T02:01:30.810Z,100131.72
2024-01-24T02:01:46.404Z,100135.28
2024-01-24T02:02:01.869Z,100137.19
2024-01-24T02:02:15.033Z,100146.00
2024-01-24T02:02:27.010Z,100145.84
2024-01-24T02:02:39.060Z,100139.63
2024-01-24T02:02:51.495Z,100141.41
2024-01-24T02:03:03.835Z,100140.56
2024-01-24T02:03:15.916Z,100151.91
2024-01-24T02:03:28.415Z,100141.50
2024-01-24T02:03:40.591Z,100137.97
2024-01-24T02:03:53.277Z,100135.44
2024-01-24T02:04:05.549Z,100139.03
2024-01-24T02:04:18.027Z,100147.00
2024-01-24T02:04:30.909Z,100146.22
2024-01-24T02:04:42.899Z,100146.19
2024-01-24T02:04:54.946Z,100172.09
2024-01-24T02:05:07.909Z,100140.75
2024-01-24T02:05:20.228Z,100156.31
2024-01-24T02:05:33.049Z,100166.81
2024-01-24T02:05:45.954Z,100163.47
2024-01-24T02:05:58.379Z,100167.00
2024-01-24T02:06:10.467Z,100149.28
2024-01-24T02:06:23.951Z,100158.88
2024-01-24T02:06:36.168Z,100151.91
2024-01-24T02:06:48.247Z,100156.28
2024-01-24T02:07:01.588Z,100157.91
2024-01-24T02:07:13.755Z,100163.09
2024-01-24T02:07:25.852Z,100163.06
2024-01-24T02:07:38.040Z,100183.88
2024-01-24T02:07:50.286Z,100150.75
2024-01-24T02:08:02.491Z,100138.56
2024-01-24T02:08:14.517Z,100152.41
2024-01-24T02:08:26.528Z,100145.47
2024-01-24T02:08:40.824Z,100164.63
2024-01-24T02:08:52.898Z,100157.13
2024-01-24T02:09:09.770Z,100144.88
2024-01-24T02:09:21.984Z,100135.16
2024-01-24T02:09:35.284Z,100147.19
2024-01-24T02:09:47.347Z,100142.06
2024-01-24T02:09:59.412Z,100150.03
2024-01-24T02:10:12.869Z,100152.00
2024-01-24T02:10:24.983Z,100151.06
2024-01-24T02:10:37.019Z,100148.47
2024-01-24T02:10:49.198Z,100150.25
2024-01-24T02:11:01.284Z,100148.69
2024-01-24T02:11:13.404Z,100146.22
2024-01-24T02:11:25.470Z,100161.69
2024-01-24T02:11:37.521Z,100142.63
2024-01-24T02:11:49.614Z,100127.03
2024-01-24T02:12:01.582Z,100138.19
2024-01-24T02:12:13.848Z,100131.25
2024-01-24T02:12:25.854Z,100145.00
2024-01-24T02:12:37.903Z,100126.53
2024-01-24T02:12:50.383Z,100150.03
2024-01-24T02:13:02.657Z,100141.41
2024-01-24T02:13:14.685Z,100136.16
2024-01-24T02:13:33.087Z,100137.25
2024-01-24T02:13:45.267Z,100130.41
2024-01-24T02:14:00.434Z,100136.72
2024-01-24T02:14:13.493Z,100132.47
2024-01-24T02:14:25.459Z,100144.75
2024-01-24T02:14:37.405Z,100147.16
2024-01-24T02:14:49.440Z,100139.06
2024-01-24T02:15:02.880Z,100135.53
2024-01-24T02:15:14.939Z,100134.63
2024-01-24T02:15:28.008Z,100139.22
2024-01-24T02:15:40.029Z,100131.38
2024-01-24T02:15:52.082Z,100139.34
2024-01-24T02:16:07.479Z,100099.97
2024-01-24T02:16:21.357Z,100111.09
2024-01-24T02:16:33.587Z,100134.59
2024-01-24T02:16:45.836Z,100135.44
2024-01-24T02:16:57.803Z,100139.34
2024-01-24T02:17:09.739Z,100131.53
2024-01-24T02:17:21.741Z,100127.00
2024-01-24T02:17:33.709Z,100145.25
2024-01-24T02:17:45.703Z,100129.00
2024-01-24T02:17:57.756Z,100130.75
2024-01-24T02:18:09.838Z,100137.59
2024-01-24T02:18:22.006Z,100128.97
2024-01-24T02:18:34.099Z,100121.94
2024-01-24T02:18:46.183Z,100120.22
2024-01-24T02:18:58.498Z,100127.13
2024-01-24T02:19:12.008Z,100132.22
2024-01-24T02:19:24.239Z,100135.53
2024-01-24T02:19:36.313Z,100126.81
2024-01-24T02:19:48.368Z,100131.94
2024-01-24T02:20:01.052Z,100134.59
2024-01-24T02:20:14.412Z,100121.72
2024-01-24T02:20:29.676Z,100127.00
2024-01-24T02:20:42.895Z,100122.75
2024-01-24T02:20:55.514Z,100142.69
2024-01-24T02:21:07.661Z,100137.44
2024-01-24T02:21:19.939Z,100148.69
2024-01-24T02:21:32.377Z,100142.75
2024-01-24T02:21:44.484Z,100135.91
2024-01-24T02:21:56.518Z,100126.94
2024-01-24T02:22:08.548Z,100135.34
2024-01-24T02:22:20.571Z,100145.78
2024-01-24T02:22:32.974Z,100142.25